Aérodrome :
LOGIN :

S'inscrire | Disclaimer

   EN    FR    IT 

 










Légende :    VFR   VFR Marginal   IFR   IFR Intensif   IFR Très Intensif
Visi : 
Plafond : 
>= 8 km
>= 3000ft
5 à 8 km
1000 à 3000 ft
1500m à 5 km
500 à 1000 ft
800 à 1500m
200 à 500 ft
< 800m
< 200 ft
Symboles :   Orages  Brouillard  Fortes neiges  Fortes précipitations  Vent > 20 kt
SIGMETs :   Divers  Orages  Givrage  Turbulence  Onde Orograph.  Cendres Volcan.






- Altitude de l'aérodrome : 587 ft
- Code IATA : XCR


LFOK - Chalons Vatry

DERNIER METAR :
  • 021600Z AUTO 23007KT 200V290 CAVOK 26/09 Q1018 NOSIG

METARs EXPIRÉS :
  • 021530Z AUTO 21005KT 160V260 CAVOK 27/11 Q1019 NOSIG
  • 021500Z AUTO 22006KT 190V250 CAVOK 26/10 Q1019 NOSIG
  • 021430Z AUTO 21006KT 150V260 CAVOK 26/10 Q1019 NOSIG
  • 020300Z AUTO 15004KT CAVOK 12/07 Q1022 NOSIG
  • 021400Z AUTO VRB04KT CAVOK 26/11 Q1019 NOSIG
  • 021330Z AUTO 22007KT 170V280 CAVOK 25/10 Q1019 NOSIG

TAF TAF LFOK
Valide du 02 à 12h jusqu'au 03 à 12h UTC


021100Z 0212/0312 VRB03KT CAVOK
BECMG 0310/0312 30010KT



MET'MAP, la Météo Aéronautique d'un coup d'oeil ! - Copyright ORBIFLY Décembre 2007 - Disclaimer

ORBIFLY MET'MAP TEAM :

Programmation & Développement : Alexandra Zaïnal
Sur une idée originale de : Baudouin d'Aumeries
Soutien technique & logistique : Manuel Goepfert
Assistance : Marc-Olivier Méhu




SOURCES & CREDITS :

   NOAA